AAL2760 KMEM-KBNA
Flight info
| Callsign | AAL2760 |
|---|---|
| Flight time | N/A |
| Altitude | 21000 |
| Route | GOETZ7 DIYAB CHSNE CHSNE2 |
| Aircraft | A20N/M-SDE2E3FGHIRWXY/LB1 |
Departure
| Time | 2026-05-08 01:59 |
|---|---|
| Airport | Memphis International Airport (KMEM) |
Arrival
| Time | N/A |
|---|---|
| Airport | Nashville International Airport (KBNA) |
| Time | Latitude | Longitude | Altitude | Speed | Heading |
|---|---|---|---|---|---|
| 2026-05-08 01:34 | 35.04031 | -89.98346 | 308 ft | 0 kts | 284° |
| 2026-05-08 01:40 | 35.04030 | -89.98342 | 308 ft | 2 kts | 284° |
| 2026-05-08 01:40 | 35.04030 | -89.98338 | 309 ft | 0 kts | 283° |
| 2026-05-08 01:43 | 35.04025 | -89.98320 | 309 ft | 2 kts | 287° |
| 2026-05-08 01:43 | 35.04021 | -89.98301 | 307 ft | 2 kts | 288° |
| 2026-05-08 01:43 | 35.04015 | -89.98282 | 308 ft | 2 kts | 291° |
| 2026-05-08 01:44 | 35.04009 | -89.98263 | 309 ft | 2 kts | 294° |
| 2026-05-08 01:44 | 35.04002 | -89.98245 | 308 ft | 2 kts | 299° |
| 2026-05-08 01:44 | 35.03993 | -89.98227 | 308 ft | 2 kts | 304° |
| 2026-05-08 01:44 | 35.03984 | -89.98211 | 309 ft | 2 kts | 293° |
| 2026-05-08 01:45 | 35.03982 | -89.98204 | 309 ft | 0 kts | 275° |
| 2026-05-08 01:53 | 35.03982 | -89.98213 | 309 ft | 4 kts | 275° |
| 2026-05-08 01:54 | 35.03980 | -89.98272 | 309 ft | 9 kts | 258° |
| 2026-05-08 01:54 | 35.03980 | -89.98301 | 309 ft | 1 kts | 292° |
| 2026-05-08 01:54 | 35.03988 | -89.98350 | 309 ft | 16 kts | 272° |
| 2026-05-08 01:54 | 35.03941 | -89.98477 | 309 ft | 13 kts | 187° |
| 2026-05-08 01:55 | 35.03791 | -89.98495 | 312 ft | 27 kts | 182° |
| 2026-05-08 01:55 | 35.03567 | -89.98480 | 318 ft | 39 kts | 179° |
| 2026-05-08 01:55 | 35.03307 | -89.98479 | 319 ft | 35 kts | 179° |
| 2026-05-08 01:55 | 35.03032 | -89.98470 | 319 ft | 46 kts | 176° |
| 2026-05-08 01:56 | 35.02716 | -89.98466 | 323 ft | 34 kts | 180° |
| 2026-05-08 01:56 | 35.02533 | -89.98463 | 324 ft | 21 kts | 181° |
| 2026-05-08 01:56 | 35.02465 | -89.98472 | 324 ft | 3 kts | 187° |
| 2026-05-08 01:56 | 35.02421 | -89.98507 | 326 ft | 10 kts | 256° |
| 2026-05-08 01:57 | 35.02414 | -89.98556 | 327 ft | 0 kts | 265° |
| 2026-05-08 01:58 | 35.02414 | -89.98561 | 328 ft | 5 kts | 265° |
| 2026-05-08 01:58 | 35.02437 | -89.98660 | 327 ft | 19 kts | 319° |
| 2026-05-08 01:58 | 35.02612 | -89.98691 | 321 ft | 38 kts | 357° |
| 2026-05-08 01:59 | 35.03274 | -89.98709 | 322 ft | 148 kts | 358° |
| 2026-05-08 01:59 | 35.04468 | -89.98719 | 1018 ft | 177 kts | 359° |